createdAt,value
2023-02-19T00:00:15.719Z,4.70
2023-02-19T00:02:42.655Z,4.80
2023-02-19T00:05:09.539Z,4.80
2023-02-19T00:07:42.799Z,4.70
2023-02-19T00:10:09.829Z,4.80
2023-02-19T00:12:36.765Z,4.70
2023-02-19T00:15:10.753Z,4.60
2023-02-19T00:17:37.591Z,4.50
2023-02-19T00:20:10.785Z,4.50
2023-02-19T00:22:37.670Z,4.40
2023-02-19T00:25:04.832Z,4.40
2023-02-19T00:27:38.861Z,4.50
2023-02-19T00:30:06.242Z,4.40
2023-02-19T00:32:33.175Z,4.40
2023-02-19T00:35:06.828Z,4.20
2023-02-19T00:37:34.591Z,4.20
2023-02-19T00:40:01.511Z,4.20
2023-02-19T00:42:34.801Z,4.10
2023-02-19T00:45:01.707Z,4.20
2023-02-19T00:47:34.758Z,4.10
2023-02-19T00:50:01.647Z,4.10
2023-02-19T00:52:34.735Z,4.10
2023-02-19T00:55:01.813Z,4.10
2023-02-19T00:57:28.708Z,4.00
2023-02-19T01:00:01.876Z,3.80
2023-02-19T01:02:28.842Z,3.80
2023-02-19T01:04:55.795Z,3.70
2023-02-19T01:07:28.789Z,3.60
2023-02-19T01:09:55.692Z,3.50
2023-02-19T01:12:22.637Z,3.60
2023-02-19T01:14:55.761Z,3.60
2023-02-19T01:17:22.693Z,3.70
2023-02-19T01:19:55.791Z,3.70
2023-02-19T01:22:22.688Z,3.70
2023-02-19T01:24:55.807Z,3.70
2023-02-19T01:27:22.721Z,3.80
2023-02-19T01:29:49.624Z,3.70
2023-02-19T01:32:22.968Z,3.70
2023-02-19T01:34:49.894Z,3.70
2023-02-19T01:37:22.802Z,3.60
2023-02-19T01:39:49.693Z,3.40
2023-02-19T01:42:23.790Z,3.30
2023-02-19T01:45:24.817Z,3.20
2023-02-19T01:48:33.364Z,3.10
2023-02-19T01:51:16.796Z,3.10
2023-02-19T01:53:56.803Z,3.10
2023-02-19T01:56:29.792Z,3.00
2023-02-19T01:58:56.734Z,3.00
2023-02-19T02:01:23.841Z,3.10
2023-02-19T02:03:57.796Z,3.00
2023-02-19T02:06:30.845Z,3.10
2023-02-19T02:09:04.842Z,3.10
2023-02-19T02:11:31.797Z,3.20
2023-02-19T02:13:58.694Z,3.10
2023-02-19T02:16:42.109Z,3.20
2023-02-19T02:20:12.665Z,3.10
2023-02-19T02:23:05.844Z,3.10
2023-02-19T02:26:22.233Z,3.00
2023-02-19T02:29:24.836Z,3.10
2023-02-19T02:32:10.873Z,3.10
2023-02-19T02:34:52.994Z,3.00
2023-02-19T02:37:26.842Z,3.00
2023-02-19T02:39:53.969Z,3.00
2023-02-19T02:42:20.836Z,3.00
2023-02-19T02:44:53.851Z,2.90
2023-02-19T02:47:20.732Z,2.90
2023-02-19T02:49:53.854Z,2.90
2023-02-19T02:52:20.768Z,2.80
2023-02-19T02:54:53.857Z,2.80
2023-02-19T02:57:20.796Z,2.70
2023-02-19T02:59:53.839Z,2.70
2023-02-19T03:02:25.571Z,2.70
2023-02-19T03:05:20.238Z,2.60
2023-02-19T03:08:20.685Z,2.60
2023-02-19T03:11:18.817Z,2.70
2023-02-19T03:13:45.674Z,2.70
2023-02-19T03:16:29.950Z,2.70
2023-02-19T03:18:57.025Z,2.60
2023-02-19T03:21:23.921Z,2.60
2023-02-19T03:23:56.809Z,2.60
2023-02-19T03:26:23.700Z,2.60
2023-02-19T03:28:57.877Z,2.70
2023-02-19T03:31:25.326Z,2.70
2023-02-19T03:34:09.818Z,2.60
2023-02-19T03:36:50.689Z,2.60
2023-02-19T03:39:27.848Z,2.50
2023-02-19T03:42:27.830Z,2.50
2023-02-19T03:45:54.862Z,2.50
2023-02-19T03:48:42.855Z,2.50
2023-02-19T03:51:46.234Z,2.50
2023-02-19T03:54:28.863Z,2.50
2023-02-19T03:57:23.680Z,2.40
2023-02-19T04:00:05.858Z,2.40
2023-02-19T04:02:47.584Z,2.40
2023-02-19T04:05:25.888Z,2.30
2023-02-19T04:07:55.302Z,2.30
2023-02-19T04:10:28.827Z,2.20
2023-02-19T04:13:16.830Z,2.20
2023-02-19T04:15:43.730Z,2.30
2023-02-19T04:18:16.542Z,2.30
2023-02-19T04:20:52.109Z,2.30
2023-02-19T04:23:28.897Z,2.40
2023-02-19T04:25:58.919Z,2.50
2023-02-19T04:28:31.874Z,2.50
2023-02-19T04:30:58.769Z,2.40
2023-02-19T04:33:31.840Z,2.40
2023-02-19T04:35:58.758Z,2.30
2023-02-19T04:38:25.674Z,2.40
2023-02-19T04:40:58.851Z,2.40
2023-02-19T04:43:25.765Z,2.40
2023-02-19T04:45:58.857Z,2.40
2023-02-19T04:48:25.774Z,2.40
2023-02-19T04:50:58.845Z,2.30
2023-02-19T04:53:25.779Z,2.20
2023-02-19T04:55:52.697Z,2.10
2023-02-19T04:58:26.851Z,2.00
2023-02-19T05:00:53.774Z,1.80
2023-02-19T05:03:26.884Z,1.80
2023-02-19T05:05:53.788Z,1.80
2023-02-19T05:08:20.915Z,1.90
2023-02-19T05:10:53.881Z,1.90
2023-02-19T05:13:20.838Z,1.90
2023-02-19T05:16:03.913Z,2.00
2023-02-19T05:18:31.255Z,2.00
2023-02-19T05:20:59.018Z,2.00
2023-02-19T05:23:32.852Z,2.10
2023-02-19T05:26:05.861Z,2.10
2023-02-19T05:28:32.777Z,2.10
2023-02-19T05:31:05.133Z,2.20
2023-02-19T05:33:38.917Z,2.20
2023-02-19T05:36:17.902Z,2.30
2023-02-19T05:38:44.937Z,2.50
2023-02-19T05:41:25.914Z,2.60
2023-02-19T05:43:53.022Z,2.70
2023-02-19T05:46:28.949Z,2.80
2023-02-19T05:48:55.967Z,2.70
2023-02-19T05:51:30.895Z,2.80
2023-02-19T05:53:57.961Z,2.80
2023-02-19T05:56:46.872Z,2.80
2023-02-19T05:59:22.217Z,2.80
2023-02-19T06:01:56.935Z,2.60
2023-02-19T06:04:23.824Z,2.40
2023-02-19T06:06:56.915Z,2.30
2023-02-19T06:09:23.863Z,2.20
2023-02-19T06:11:56.905Z,2.10
2023-02-19T06:14:23.827Z,2.00
2023-02-19T06:16:56.861Z,1.90
2023-02-19T06:19:23.759Z,1.80
2023-02-19T06:21:57.947Z,1.90
2023-02-19T06:24:24.849Z,1.90
2023-02-19T06:26:51.733Z,1.90
2023-02-19T06:29:24.910Z,2.00
2023-02-19T06:31:51.936Z,2.00
2023-02-19T06:34:18.929Z,2.10
2023-02-19T06:36:52.876Z,2.10
2023-02-19T06:39:19.758Z,2.10
2023-02-19T06:41:52.892Z,2.30
2023-02-19T06:44:19.826Z,2.30
2023-02-19T06:46:46.784Z,2.20
2023-02-19T06:49:19.973Z,2.20
2023-02-19T06:51:46.977Z,2.20
2023-02-19T06:54:13.880Z,2.30
2023-02-19T06:56:47.917Z,2.50
2023-02-19T06:59:15.860Z,2.70
2023-02-19T07:01:49.941Z,2.90
2023-02-19T07:04:16.884Z,3.20
2023-02-19T07:06:43.905Z,3.40
2023-02-19T07:09:17.902Z,3.60
2023-02-19T07:11:44.763Z,3.70
2023-02-19T07:14:21.951Z,3.60
2023-02-19T07:16:49.091Z,3.70
2023-02-19T07:19:22.936Z,3.90
2023-02-19T07:21:49.784Z,4.10
2023-02-19T07:24:22.939Z,4.20
2023-02-19T07:26:49.903Z,4.30
2023-02-19T07:29:16.909Z,4.50
2023-02-19T07:31:50.025Z,4.90
2023-02-19T07:34:17.036Z,5.10
2023-02-19T07:36:49.963Z,5.00
2023-02-19T07:39:16.956Z,5.20
2023-02-19T07:41:43.924Z,5.50
2023-02-19T07:44:16.977Z,5.70
2023-02-19T07:46:44.876Z,5.80
2023-02-19T07:49:17.950Z,5.90
2023-02-19T07:51:45.492Z,5.90
2023-02-19T07:54:18.983Z,6.00
2023-02-19T07:56:46.221Z,6.10
2023-02-19T07:59:13.231Z,6.00
2023-02-19T08:01:46.966Z,5.90
2023-02-19T08:04:14.676Z,6.00
2023-02-19T08:06:47.919Z,6.10
2023-02-19T08:09:20.978Z,6.10
2023-02-19T08:11:54.613Z,6.20
2023-02-19T08:14:32.978Z,6.30
2023-02-19T08:16:59.910Z,6.40
2023-02-19T08:19:32.943Z,6.70
2023-02-19T08:21:59.857Z,6.90
2023-02-19T08:24:32.946Z,7.20
2023-02-19T08:26:59.890Z,7.30
2023-02-19T08:29:34.059Z,7.40
2023-02-19T08:32:01.028Z,7.50
2023-02-19T08:34:27.935Z,7.70
2023-02-19T08:37:00.958Z,7.70
2023-02-19T08:39:27.939Z,7.80
2023-02-19T08:41:54.816Z,7.80
2023-02-19T08:44:27.999Z,7.90
2023-02-19T08:47:00.980Z,8.00
2023-02-19T08:49:35.022Z,8.00
2023-02-19T08:52:07.954Z,8.10
2023-02-19T08:54:36.810Z,8.10
2023-02-19T08:57:11.164Z,8.30
2023-02-19T08:59:38.007Z,8.30
2023-02-19T09:02:05.003Z,8.40
2023-02-19T09:04:37.961Z,8.50
2023-02-19T09:07:05.618Z,8.70
2023-02-19T09:09:53.017Z,8.90
2023-02-19T09:12:25.982Z,9.00
2023-02-19T09:14:52.909Z,9.00
2023-02-19T09:17:26.027Z,9.10
2023-02-19T09:19:53.002Z,9.30
2023-02-19T09:22:27.024Z,9.20
2023-02-19T09:24:54.107Z,9.20
2023-02-19T09:27:21.064Z,9.30
2023-02-19T09:29:53.961Z,9.40
2023-02-19T09:32:21.096Z,9.50
2023-02-19T09:34:48.180Z,9.60
2023-02-19T09:37:22.188Z,9.70
2023-02-19T09:39:56.166Z,9.80
2023-02-19T09:42:32.058Z,10.00
2023-02-19T09:45:00.294Z,10.10
2023-02-19T09:47:36.098Z,10.20
2023-02-19T09:50:09.003Z,10.40
2023-02-19T09:53:00.047Z,10.60
2023-02-19T09:55:36.478Z,10.90
2023-02-19T09:58:22.027Z,11.10
2023-02-19T10:00:56.074Z,11.40
2023-02-19T10:03:38.393Z,11.80
2023-02-19T10:06:33.198Z,12.20
2023-02-19T10:09:22.157Z,12.50
2023-02-19T10:11:56.011Z,12.70
2023-02-19T10:14:36.379Z,12.60
2023-02-19T10:17:12.105Z,12.50
2023-02-19T10:19:39.570Z,12.80
2023-02-19T10:22:06.990Z,13.00
2023-02-19T10:24:40.104Z,13.00
2023-02-19T10:27:14.452Z,13.20
2023-02-19T10:29:51.223Z,13.20
2023-02-19T10:32:23.754Z,13.20
2023-02-19T10:35:21.395Z,13.50
2023-02-19T10:37:57.031Z,13.80
2023-02-19T10:40:26.652Z,13.80
2023-02-19T10:43:05.083Z,13.80
2023-02-19T10:45:53.136Z,14.10
2023-02-19T10:48:37.014Z,14.40
2023-02-19T10:51:17.160Z,14.50
2023-02-19T10:53:46.720Z,14.60
2023-02-19T10:56:30.137Z,14.60
2023-02-19T10:59:26.826Z,14.60
2023-02-19T11:02:25.142Z,14.90
2023-02-19T11:05:10.342Z,15.20
2023-02-19T11:07:52.109Z,15.30
2023-02-19T11:10:32.269Z,15.30
2023-02-19T11:13:11.106Z,15.20
2023-02-19T11:15:38.102Z,15.30
2023-02-19T11:18:16.132Z,15.40
2023-02-19T11:20:57.222Z,15.40
2023-02-19T11:23:37.071Z,15.30
2023-02-19T11:26:25.178Z,15.40
2023-02-19T11:29:09.063Z,15.40
2023-02-19T11:31:36.319Z,15.60
2023-02-19T11:34:30.080Z,15.60
2023-02-19T11:37:19.142Z,15.60
2023-02-19T11:39:50.783Z,15.50
2023-02-19T11:42:48.100Z,15.50
2023-02-19T11:45:48.133Z,15.60
2023-02-19T11:49:03.060Z,15.80
2023-02-19T11:52:10.081Z,15.70
2023-02-19T11:54:59.092Z,15.70
2023-02-19T11:58:40.078Z,15.80
2023-02-19T12:01:27.769Z,16.10
2023-02-19T12:04:30.193Z,16.30
2023-02-19T12:07:55.657Z,16.50
2023-02-19T12:11:00.106Z,16.50
2023-02-19T12:14:19.682Z,16.70
2023-02-19T12:17:08.167Z,16.80
2023-02-19T12:20:00.155Z,17.00
2023-02-19T12:22:41.317Z,17.00
2023-02-19T12:25:27.057Z,17.00
2023-02-19T12:28:29.128Z,17.00
2023-02-19T12:31:10.804Z,17.00
2023-02-19T12:34:50.256Z,17.10
2023-02-19T12:37:47.650Z,17.10
2023-02-19T12:41:01.203Z,17.00
2023-02-19T12:43:28.141Z,17.10
2023-02-19T12:46:41.116Z,17.20
2023-02-19T12:49:24.145Z,17.30
2023-02-19T12:52:02.300Z,17.30
2023-02-19T12:54:39.070Z,17.30
2023-02-19T12:57:20.299Z,17.20
2023-02-19T13:00:17.340Z,17.00
2023-02-19T13:03:16.208Z,17.00
2023-02-19T13:05:57.247Z,17.00
2023-02-19T13:09:06.279Z,17.00
2023-02-19T13:11:58.135Z,17.20
2023-02-19T13:14:46.118Z,17.30
2023-02-19T13:17:47.162Z,17.40
2023-02-19T13:20:31.924Z,17.40
2023-02-19T13:23:23.162Z,17.40
2023-02-19T13:26:20.993Z,17.50
2023-02-19T13:29:10.145Z,17.50
2023-02-19T13:32:06.260Z,17.60
2023-02-19T13:34:42.164Z,17.50
2023-02-19T13:37:16.165Z,17.50
2023-02-19T13:39:51.440Z,17.50
2023-02-19T13:42:34.183Z,17.50
2023-02-19T13:45:12.141Z,17.40
2023-02-19T13:47:49.537Z,17.30
2023-02-19T13:50:37.162Z,17.40
2023-02-19T13:53:49.190Z,17.50
2023-02-19T13:56:31.328Z,17.60
2023-02-19T13:59:58.112Z,17.70
2023-02-19T14:02:27.100Z,17.70
2023-02-19T14:05:16.161Z,17.80
2023-02-19T14:07:52.135Z,17.80
2023-02-19T14:10:57.159Z,17.90
2023-02-19T14:13:52.281Z,17.80
2023-02-19T14:16:43.201Z,17.80
2023-02-19T14:19:14.711Z,17.80
2023-02-19T14:21:41.640Z,17.80
2023-02-19T14:24:19.177Z,17.70
2023-02-19T14:26:52.195Z,17.80
2023-02-19T14:29:19.067Z,17.70
2023-02-19T14:31:52.259Z,17.70
2023-02-19T14:34:23.256Z,17.70
2023-02-19T14:37:06.190Z,17.70
2023-02-19T14:39:36.932Z,17.70
2023-02-19T14:42:31.220Z,17.70
2023-02-19T14:45:10.189Z,17.70
2023-02-19T14:47:37.077Z,17.60
2023-02-19T14:50:08.968Z,17.60
2023-02-19T14:52:52.182Z,17.60
2023-02-19T14:55:43.182Z,17.70
2023-02-19T14:58:37.033Z,17.70
2023-02-19T15:01:10.499Z,17.70
2023-02-19T15:03:37.746Z,17.60
2023-02-19T15:06:19.218Z,17.60
2023-02-19T15:08:55.207Z,17.60
2023-02-19T15:11:23.678Z,17.70
2023-02-19T15:14:09.213Z,17.60
2023-02-19T15:16:36.197Z,17.60
2023-02-19T15:19:13.242Z,17.60
2023-02-19T15:21:44.873Z,17.60
2023-02-19T15:24:11.753Z,17.60
2023-02-19T15:26:47.236Z,17.60
2023-02-19T15:29:25.270Z,17.60
2023-02-19T15:31:57.463Z,17.60
2023-02-19T15:34:33.287Z,17.60
2023-02-19T15:37:06.453Z,17.60
2023-02-19T15:39:46.237Z,17.60
2023-02-19T15:42:25.901Z,17.50
2023-02-19T15:45:07.304Z,17.40
2023-02-19T15:47:39.783Z,17.40
2023-02-19T15:50:18.222Z,17.30
2023-02-19T15:53:09.473Z,17.30
2023-02-19T15:55:49.199Z,17.20
2023-02-19T15:58:31.154Z,17.20
2023-02-19T16:01:10.546Z,17.20
2023-02-19T16:03:37.529Z,17.10
2023-02-19T16:06:21.305Z,17.10
2023-02-19T16:09:06.961Z,17.00
2023-02-19T16:11:44.264Z,16.90
2023-02-19T16:14:34.329Z,16.70
2023-02-19T16:17:19.307Z,16.60
2023-02-19T16:19:59.251Z,16.40
2023-02-19T16:22:37.270Z,16.30
2023-02-19T16:25:06.149Z,16.30
2023-02-19T16:27:45.273Z,16.20
2023-02-19T16:30:18.527Z,16.10
2023-02-19T16:32:52.308Z,16.10
2023-02-19T16:35:39.371Z,16.00
2023-02-19T16:38:26.270Z,15.90
2023-02-19T16:41:04.927Z,15.80
2023-02-19T16:43:49.266Z,15.70
2023-02-19T16:46:16.208Z,15.60
2023-02-19T16:48:49.245Z,15.50
2023-02-19T16:51:27.454Z,15.40
2023-02-19T16:54:01.294Z,15.40
2023-02-19T16:56:34.454Z,15.20
2023-02-19T16:59:01.510Z,15.10
2023-02-19T17:01:35.275Z,15.00
2023-02-19T17:04:05.451Z,14.90
2023-02-19T17:06:39.272Z,14.80
2023-02-19T17:09:07.129Z,14.70
2023-02-19T17:11:41.283Z,14.70
2023-02-19T17:14:08.175Z,14.70
2023-02-19T17:16:41.338Z,14.60
2023-02-19T17:19:16.946Z,14.50
2023-02-19T17:21:50.258Z,14.40
2023-02-19T17:24:17.112Z,14.40
2023-02-19T17:26:50.256Z,14.30
2023-02-19T17:29:18.090Z,14.30
2023-02-19T17:31:45.342Z,14.20
2023-02-19T17:34:19.317Z,14.20
2023-02-19T17:36:46.330Z,14.10
2023-02-19T17:39:14.534Z,14.00
2023-02-19T17:41:48.325Z,14.00
2023-02-19T17:44:15.426Z,13.90
2023-02-19T17:46:49.332Z,13.80
2023-02-19T17:49:16.262Z,13.50
2023-02-19T17:51:49.326Z,13.20
2023-02-19T17:54:16.258Z,13.20
2023-02-19T17:56:49.306Z,13.10
2023-02-19T17:59:18.237Z,13.00
2023-02-19T18:01:45.291Z,12.80
2023-02-19T18:04:18.381Z,12.60
2023-02-19T18:06:45.285Z,12.40
2023-02-19T18:09:12.195Z,12.10
2023-02-19T18:11:45.332Z,12.10
2023-02-19T18:14:12.274Z,12.10
2023-02-19T18:16:54.358Z,12.10
2023-02-19T18:19:21.355Z,12.20
2023-02-19T18:21:54.427Z,12.20
2023-02-19T18:24:21.352Z,12.00
2023-02-19T18:26:48.296Z,12.00
2023-02-19T18:29:21.327Z,11.80
2023-02-19T18:31:48.364Z,11.70
2023-02-19T18:34:18.834Z,11.30
2023-02-19T18:36:53.310Z,11.00
2023-02-19T18:39:20.206Z,11.00
2023-02-19T18:41:57.383Z,11.10
2023-02-19T18:44:24.888Z,11.20
2023-02-19T18:46:51.859Z,11.20
2023-02-19T18:49:25.330Z,11.30
2023-02-19T18:51:52.233Z,11.30
2023-02-19T18:54:29.350Z,11.30
2023-02-19T18:56:56.545Z,11.40
2023-02-19T18:59:23.840Z,11.40
2023-02-19T19:01:57.381Z,11.20
2023-02-19T19:04:30.371Z,11.00
2023-02-19T19:06:57.262Z,10.80
2023-02-19T19:09:30.388Z,10.60
2023-02-19T19:11:57.420Z,10.20
2023-02-19T19:14:24.400Z,10.00
2023-02-19T19:16:58.352Z,9.90
2023-02-19T19:19:25.541Z,10.00
2023-02-19T19:22:00.392Z,9.90
2023-02-19T19:24:27.323Z,9.80
2023-02-19T19:26:54.294Z,9.70
2023-02-19T19:29:28.353Z,9.50
2023-02-19T19:31:55.272Z,9.50
2023-02-19T19:34:28.388Z,9.50
2023-02-19T19:36:55.315Z,9.30
2023-02-19T19:39:22.571Z,9.20
2023-02-19T19:42:01.340Z,9.10
2023-02-19T19:44:28.231Z,8.90
2023-02-19T19:46:55.244Z,8.90
2023-02-19T19:49:29.408Z,8.80
2023-02-19T19:51:58.479Z,8.70
2023-02-19T19:54:25.789Z,8.60
2023-02-19T19:56:59.446Z,8.60
2023-02-19T19:59:26.527Z,8.50
2023-02-19T20:02:02.399Z,8.40
2023-02-19T20:04:29.317Z,8.40
2023-02-19T20:07:04.443Z,8.30
2023-02-19T20:09:31.322Z,8.30
2023-02-19T20:11:58.267Z,8.20
2023-02-19T20:14:33.403Z,8.30
2023-02-19T20:17:00.632Z,8.50
2023-02-19T20:19:34.396Z,8.60
2023-02-19T20:22:01.984Z,8.60
2023-02-19T20:24:36.966Z,8.60
2023-02-19T20:27:04.879Z,8.50
2023-02-19T20:29:45.240Z,8.50
2023-02-19T20:32:12.963Z,8.50
2023-02-19T20:34:40.248Z,8.50
2023-02-19T20:37:14.412Z,8.50
2023-02-19T20:39:41.344Z,8.30
2023-02-19T20:42:16.685Z,7.90
2023-02-19T20:44:43.828Z,7.60
2023-02-19T20:47:10.795Z,7.50
2023-02-19T20:49:44.432Z,7.70
2023-02-19T20:52:18.402Z,7.80
2023-02-19T20:54:51.400Z,7.70
2023-02-19T20:57:24.459Z,7.60
2023-02-19T20:59:58.657Z,7.50
2023-02-19T21:02:27.061Z,7.50
2023-02-19T21:05:00.414Z,7.60
2023-02-19T21:07:27.408Z,7.60
2023-02-19T21:10:01.444Z,7.50
2023-02-19T21:12:28.379Z,7.60
2023-02-19T21:15:01.446Z,7.60
2023-02-19T21:17:28.417Z,7.50
2023-02-19T21:20:02.453Z,7.50
2023-02-19T21:22:29.331Z,7.40
2023-02-19T21:24:56.264Z,7.30
2023-02-19T21:27:29.442Z,7.20
2023-02-19T21:29:56.378Z,6.90
2023-02-19T21:32:29.474Z,6.70
2023-02-19T21:34:56.422Z,6.60
2023-02-19T21:37:23.365Z,6.80
2023-02-19T21:39:56.441Z,7.00
2023-02-19T21:42:23.298Z,7.00
2023-02-19T21:44:56.390Z,6.70
2023-02-19T21:47:29.425Z,6.60
2023-02-19T21:49:56.330Z,6.70
2023-02-19T21:52:29.403Z,6.60
2023-02-19T21:54:56.386Z,6.50
2023-02-19T21:57:29.426Z,6.30
2023-02-19T21:59:56.296Z,6.50
2023-02-19T22:02:29.447Z,6.60
2023-02-19T22:04:56.320Z,6.60
2023-02-19T22:07:29.428Z,6.60
2023-02-19T22:09:56.390Z,6.50
2023-02-19T22:12:23.347Z,6.30
2023-02-19T22:15:01.544Z,6.40
2023-02-19T22:17:34.458Z,6.40
2023-02-19T22:20:01.404Z,6.20
2023-02-19T22:22:34.420Z,6.10
2023-02-19T22:25:01.326Z,6.20
2023-02-19T22:27:35.434Z,6.20
2023-02-19T22:30:02.501Z,6.30
2023-02-19T22:32:29.645Z,6.40
2023-02-19T22:35:03.413Z,6.30
2023-02-19T22:37:36.448Z,6.40
2023-02-19T22:40:03.521Z,6.30
2023-02-19T22:42:30.412Z,6.10
2023-02-19T22:45:03.454Z,6.00
2023-02-19T22:47:30.326Z,6.00
2023-02-19T22:50:03.513Z,6.00
2023-02-19T22:52:36.428Z,6.10
2023-02-19T22:55:03.371Z,6.20
2023-02-19T22:57:30.245Z,6.30
2023-02-19T23:00:03.435Z,6.20
2023-02-19T23:02:30.372Z,6.20
2023-02-19T23:05:03.444Z,5.90
2023-02-19T23:07:30.352Z,6.00
2023-02-19T23:09:57.241Z,6.00
2023-02-19T23:12:30.449Z,6.10
2023-02-19T23:14:57.337Z,6.20
2023-02-19T23:17:30.499Z,6.30
2023-02-19T23:19:57.404Z,6.30
2023-02-19T23:22:24.334Z,6.30
2023-02-19T23:24:57.477Z,6.40
2023-02-19T23:27:24.426Z,6.10
2023-02-19T23:29:51.375Z,6.10
2023-02-19T23:32:24.445Z,5.90
2023-02-19T23:34:51.484Z,5.70
2023-02-19T23:37:18.461Z,5.70
2023-02-19T23:39:51.460Z,5.60
2023-02-19T23:42:18.406Z,5.50
2023-02-19T23:44:55.454Z,5.50
2023-02-19T23:47:22.291Z,5.60
2023-02-19T23:49:49.196Z,5.50
2023-02-19T23:52:22.520Z,5.50
2023-02-19T23:54:55.460Z,5.40
2023-02-19T23:57:22.329Z,5.40
2023-02-19T23:59:49.198Z,5.30
